createdAt,value
2023-02-02T00:04:25.912Z,1023.62
2023-02-02T00:09:27.100Z,1023.65
2023-02-02T00:14:28.285Z,1023.71
2023-02-02T00:19:29.421Z,1023.60
2023-02-02T00:24:30.591Z,1023.66
2023-02-02T00:29:32.727Z,1023.70
2023-02-02T00:34:31.948Z,1023.74
2023-02-02T00:39:33.090Z,1023.64
2023-02-02T00:44:34.221Z,1023.59
2023-02-02T00:49:35.354Z,1023.62
2023-02-02T00:54:36.481Z,1023.54
2023-02-02T00:59:37.640Z,1023.38
2023-02-02T01:04:38.723Z,1023.37
2023-02-02T01:09:39.918Z,1023.45
2023-02-02T01:14:41.071Z,1023.40
2023-02-02T01:19:42.230Z,1023.56
2023-02-02T01:24:43.385Z,1023.61
2023-02-02T01:29:44.553Z,1023.72
2023-02-02T01:34:45.652Z,1023.39
2023-02-02T01:39:46.780Z,1023.57
2023-02-02T01:44:47.910Z,1023.54
2023-02-02T01:49:49.070Z,1023.49
2023-02-02T01:54:50.233Z,1023.38
2023-02-02T01:59:51.343Z,1023.33
2023-02-02T02:05:03.354Z,1023.11
2023-02-02T02:09:52.491Z,1023.29
2023-02-02T02:14:53.617Z,1023.24
2023-02-02T02:19:54.789Z,1023.30
2023-02-02T02:24:55.979Z,1023.15
2023-02-02T02:29:57.131Z,1023.23
2023-02-02T02:34:58.215Z,1023.42
2023-02-02T02:39:59.376Z,1023.28
2023-02-02T02:45:01.452Z,1023.25
2023-02-02T02:50:00.599Z,1023.29
2023-02-02T02:55:02.813Z,1023.13
2023-02-02T03:00:03.049Z,1023.14
2023-02-02T03:05:02.173Z,1023.02
2023-02-02T03:10:03.607Z,1022.99
2023-02-02T03:15:04.719Z,1022.77
2023-02-02T03:20:05.960Z,1022.72
2023-02-02T03:25:08.066Z,1022.96
2023-02-02T03:30:07.205Z,1022.97
2023-02-02T03:35:09.368Z,1022.85
2023-02-02T03:40:08.523Z,1023.02
2023-02-02T03:45:09.695Z,1023.05
2023-02-02T03:50:10.800Z,1023.09
2023-02-02T03:55:11.931Z,1023.15
2023-02-02T04:00:13.091Z,1023.28
2023-02-02T04:05:14.258Z,1023.33
2023-02-02T04:10:15.398Z,1023.56
2023-02-02T04:15:16.520Z,1023.68
2023-02-02T04:20:17.664Z,1023.79
2023-02-02T04:25:18.735Z,1023.69
2023-02-02T04:30:19.893Z,1023.67
2023-02-02T04:35:21.032Z,1023.69
2023-02-02T04:40:22.124Z,1023.66
2023-02-02T04:45:24.638Z,1023.68
2023-02-02T04:50:24.022Z,1023.58
2023-02-02T04:55:26.559Z,1023.52
2023-02-02T05:00:26.750Z,1023.59
2023-02-02T05:05:26.175Z,1023.38
2023-02-02T05:10:25.466Z,1023.51
2023-02-02T05:15:26.851Z,1023.72
2023-02-02T05:20:27.218Z,1023.38
2023-02-02T05:25:26.657Z,1023.63
2023-02-02T05:30:25.916Z,1023.53
2023-02-02T05:35:27.440Z,1023.68
2023-02-02T05:40:26.679Z,1023.60
2023-02-02T05:45:29.808Z,1023.64
2023-02-02T05:50:28.954Z,1023.60
2023-02-02T05:55:30.070Z,1023.46
2023-02-02T06:00:32.195Z,1023.44
2023-02-02T06:05:31.382Z,1023.35
2023-02-02T06:10:32.556Z,1023.39
2023-02-02T06:15:33.713Z,1023.61
2023-02-02T06:20:34.827Z,1023.43
2023-02-02T06:25:35.948Z,1023.63
2023-02-02T06:30:38.180Z,1023.60
2023-02-02T06:35:37.381Z,1023.69
2023-02-02T06:40:38.517Z,1023.94
2023-02-02T06:45:39.642Z,1023.72
2023-02-02T06:50:40.818Z,1023.87
2023-02-02T06:55:42.915Z,1024.00
2023-02-02T07:00:40.061Z,1024.08
2023-02-02T07:05:43.199Z,1024.09
2023-02-02T07:11:15.342Z,1024.05
2023-02-02T07:15:44.362Z,1024.00
2023-02-02T07:20:46.503Z,1024.17
2023-02-02T07:25:45.647Z,1024.03
2023-02-02T07:30:47.774Z,1024.18
2023-02-02T07:35:46.861Z,1024.19
2023-02-02T07:40:47.982Z,1024.21
2023-02-02T07:45:49.085Z,1024.25
2023-02-02T07:50:50.220Z,1024.25
2023-02-02T07:55:51.318Z,1024.18
2023-02-02T08:00:53.451Z,1024.45
2023-02-02T08:05:53.585Z,1024.09
2023-02-02T08:10:52.711Z,1024.31
2023-02-02T08:15:53.891Z,1024.50
2023-02-02T08:20:56.025Z,1024.45
2023-02-02T08:25:56.143Z,1024.50
2023-02-02T08:30:56.326Z,1024.56
2023-02-02T08:35:55.619Z,1024.54
2023-02-02T08:40:56.750Z,1024.63
2023-02-02T08:46:01.276Z,1024.66
2023-02-02T08:50:58.795Z,1024.67
2023-02-02T08:55:57.921Z,1024.74
2023-02-02T09:00:59.065Z,1024.72
2023-02-02T09:06:00.152Z,1024.74
2023-02-02T09:11:01.423Z,1024.85
2023-02-02T09:16:02.518Z,1024.88
2023-02-02T09:21:03.622Z,1024.91
2023-02-02T09:26:05.718Z,1024.93
2023-02-02T09:31:04.890Z,1024.77
2023-02-02T09:36:07.068Z,1024.84
2023-02-02T09:41:07.751Z,1024.84
2023-02-02T09:46:08.971Z,1024.82
2023-02-02T09:51:08.110Z,1024.74
2023-02-02T09:56:08.330Z,1024.90
2023-02-02T10:01:10.539Z,1024.87
2023-02-02T10:06:10.656Z,1025.26
2023-02-02T10:11:09.773Z,1025.09
2023-02-02T10:16:13.825Z,1025.49
2023-02-02T10:21:10.951Z,1025.28
2023-02-02T10:26:13.102Z,1025.51
2023-02-02T10:31:12.351Z,1025.41
2023-02-02T10:36:13.503Z,1025.43
2023-02-02T10:41:14.643Z,1025.47
2023-02-02T10:46:15.846Z,1025.48
2023-02-02T10:51:16.943Z,1025.50
2023-02-02T10:56:19.032Z,1025.46
2023-02-02T11:01:18.424Z,1025.59
2023-02-02T11:06:18.659Z,1025.69
2023-02-02T11:11:19.101Z,1025.50
2023-02-02T11:16:18.220Z,1025.57
2023-02-02T11:21:19.397Z,1025.50
2023-02-02T11:26:20.583Z,1025.34
2023-02-02T11:31:23.774Z,1025.30
2023-02-02T11:36:23.921Z,1025.39
2023-02-02T11:41:25.037Z,1025.41
2023-02-02T11:46:25.191Z,1025.37
2023-02-02T11:51:24.440Z,1025.25
2023-02-02T11:56:26.596Z,1025.27
2023-02-02T12:01:28.029Z,1025.06
2023-02-02T12:06:28.155Z,1025.22
2023-02-02T12:11:28.264Z,1025.12
2023-02-02T12:16:27.432Z,1025.05
2023-02-02T12:21:29.540Z,1024.88
2023-02-02T12:26:29.752Z,1024.90
2023-02-02T12:31:29.932Z,1024.99
2023-02-02T12:36:30.042Z,1025.06
2023-02-02T12:41:31.164Z,1024.94
2023-02-02T12:46:30.316Z,1024.98
2023-02-02T12:51:31.404Z,1024.95
2023-02-02T12:56:32.529Z,1024.91
2023-02-02T13:01:33.629Z,1025.16
2023-02-02T13:06:34.731Z,1025.04
2023-02-02T13:11:36.805Z,1025.13
2023-02-02T13:16:35.895Z,1025.08
2023-02-02T13:21:36.963Z,1025.12
2023-02-02T13:26:39.169Z,1025.12
2023-02-02T13:31:39.375Z,1025.06
2023-02-02T13:36:39.535Z,1025.11
2023-02-02T13:41:39.630Z,1025.32
2023-02-02T13:46:39.715Z,1025.37
2023-02-02T13:51:38.779Z,1025.16
2023-02-02T13:56:40.900Z,1025.28
2023-02-02T14:01:41.593Z,1025.33
2023-02-02T14:06:40.664Z,1025.42
2023-02-02T14:11:41.760Z,1025.54
2023-02-02T14:16:43.878Z,1025.62
2023-02-02T14:21:42.931Z,1025.57
2023-02-02T14:26:46.234Z,1025.74
2023-02-02T14:31:45.506Z,1025.89
2023-02-02T14:36:47.635Z,1025.78
2023-02-02T14:41:47.779Z,1025.65
2023-02-02T14:46:49.035Z,1025.69
2023-02-02T14:51:49.199Z,1025.84
2023-02-02T14:56:48.274Z,1025.88
2023-02-02T15:01:49.388Z,1025.78
2023-02-02T15:06:50.463Z,1025.86
2023-02-02T15:11:51.583Z,1025.91
2023-02-02T15:16:52.665Z,1025.86
2023-02-02T15:21:53.763Z,1025.93
2023-02-02T15:26:55.873Z,1026.08
2023-02-02T15:31:53.981Z,1026.01
2023-02-02T15:36:56.066Z,1026.19
2023-02-02T15:41:56.146Z,1026.30
2023-02-02T15:46:55.328Z,1026.30
2023-02-02T15:51:57.438Z,1026.29
2023-02-02T15:56:57.503Z,1026.38
2023-02-02T16:01:56.665Z,1026.44
2023-02-02T16:06:57.742Z,1026.60
2023-02-02T16:11:57.881Z,1026.70
2023-02-02T16:16:59.002Z,1026.60
2023-02-02T16:22:01.124Z,1026.65
2023-02-02T16:27:00.211Z,1026.57
2023-02-02T16:32:02.371Z,1026.66
2023-02-02T16:37:02.507Z,1026.64
2023-02-02T16:42:01.660Z,1026.64
2023-02-02T16:47:02.757Z,1026.70
2023-02-02T16:52:03.859Z,1026.77
2023-02-02T16:57:05.960Z,1026.76
2023-02-02T17:02:05.152Z,1026.69
2023-02-02T17:07:07.767Z,1026.86
2023-02-02T17:12:16.731Z,1026.81
2023-02-02T17:17:08.656Z,1027.11
2023-02-02T17:22:08.750Z,1027.16
2023-02-02T17:27:09.845Z,1027.22
2023-02-02T17:32:09.930Z,1027.24
2023-02-02T17:37:10.006Z,1027.26
2023-02-02T17:42:10.079Z,1027.33
2023-02-02T17:47:09.182Z,1027.38
2023-02-02T17:52:12.270Z,1027.46
2023-02-02T17:57:13.417Z,1027.54
2023-02-02T18:02:12.485Z,1027.52
2023-02-02T18:07:14.588Z,1027.57
2023-02-02T18:12:14.685Z,1027.82
2023-02-02T18:17:13.810Z,1027.90
2023-02-02T18:22:14.925Z,1027.77
2023-02-02T18:27:16.023Z,1027.79
2023-02-02T18:32:17.123Z,1027.63
2023-02-02T18:37:18.276Z,1027.61
2023-02-02T18:42:19.363Z,1027.58
2023-02-02T18:47:22.494Z,1027.57
2023-02-02T18:52:21.586Z,1027.51
2023-02-02T18:57:22.666Z,1027.56
2023-02-02T19:02:23.761Z,1027.57
2023-02-02T19:07:24.860Z,1027.67
2023-02-02T19:12:25.988Z,1027.67
2023-02-02T19:17:27.158Z,1027.60
2023-02-02T19:22:28.356Z,1027.72
2023-02-02T19:27:29.506Z,1027.69
2023-02-02T19:32:31.682Z,1027.84
2023-02-02T19:37:31.088Z,1027.91
2023-02-02T19:42:32.240Z,1027.89
2023-02-02T19:47:33.395Z,1027.92
2023-02-02T19:52:35.539Z,1027.93
2023-02-02T19:57:34.622Z,1028.07
2023-02-02T20:02:35.763Z,1028.11
2023-02-02T20:07:36.870Z,1028.17
2023-02-02T20:12:38.057Z,1028.07
2023-02-02T20:17:40.221Z,1028.16
2023-02-02T20:22:39.359Z,1028.20
2023-02-02T20:27:40.494Z,1028.17
2023-02-02T20:32:41.699Z,1028.13
2023-02-02T20:37:42.811Z,1028.13
2023-02-02T20:42:43.979Z,1028.12
2023-02-02T20:47:45.105Z,1028.18
2023-02-02T20:52:47.257Z,1028.21
2023-02-02T20:57:46.379Z,1028.45
2023-02-02T21:02:47.517Z,1028.41
2023-02-02T21:07:49.632Z,1028.39
2023-02-02T21:12:51.797Z,1028.57
2023-02-02T21:17:49.060Z,1028.57
2023-02-02T21:22:51.183Z,1028.50
2023-02-02T21:27:51.257Z,1028.49
2023-02-02T21:32:50.732Z,1028.58
2023-02-02T21:37:49.865Z,1028.41
2023-02-02T21:42:50.957Z,1028.36
2023-02-02T21:47:52.111Z,1028.35
2023-02-02T21:52:54.235Z,1028.54
2023-02-02T21:57:53.341Z,1028.47
2023-02-02T22:02:54.472Z,1028.67
2023-02-02T22:07:55.523Z,1028.60
2023-02-02T22:12:56.628Z,1028.54
2023-02-02T22:17:57.758Z,1028.57
2023-02-02T22:22:58.861Z,1028.54
2023-02-02T22:28:00.090Z,1028.70
2023-02-02T22:33:01.228Z,1028.74
2023-02-02T22:38:04.404Z,1028.84
2023-02-02T22:43:03.508Z,1028.72
2023-02-02T22:48:04.578Z,1028.71
2023-02-02T22:53:05.705Z,1028.78
2023-02-02T22:58:06.856Z,1028.82
2023-02-02T23:03:08.006Z,1028.71
2023-02-02T23:08:09.133Z,1028.79
2023-02-02T23:13:10.216Z,1028.76
2023-02-02T23:18:11.286Z,1028.86
2023-02-02T23:23:13.423Z,1029.03
2023-02-02T23:28:12.644Z,1029.14
2023-02-02T23:33:14.131Z,1029.09
2023-02-02T23:38:16.244Z,1029.21
2023-02-02T23:43:16.314Z,1029.13
2023-02-02T23:48:14.433Z,1029.08
2023-02-02T23:53:15.634Z,1029.14
2023-02-02T23:58:17.069Z,1028.96
